createdAt,value
2019-02-04T00:05:53.160Z,57.05
2019-02-04T00:11:49.466Z,57.48
2019-02-04T00:17:44.946Z,57.70
2019-02-04T00:23:45.031Z,48.73
2019-02-04T00:29:43.905Z,53.50
2019-02-04T00:35:41.303Z,48.90
2019-02-04T00:41:38.201Z,49.13
2019-02-04T00:47:26.375Z,54.88
2019-02-04T00:53:35.809Z,41.37
2019-02-04T00:59:31.279Z,40.67
2019-02-04T01:05:42.915Z,40.17
2019-02-04T01:11:39.270Z,39.38
2019-02-04T01:17:38.231Z,29.50
2019-02-04T01:23:36.553Z,36.42
2019-02-04T01:29:57.361Z,35.83
2019-02-04T01:35:56.195Z,45.88
2019-02-04T01:41:46.380Z,41.23
2019-02-04T01:47:42.872Z,38.15
2019-02-04T01:53:40.690Z,39.60
2019-02-04T01:59:37.987Z,33.65
2019-02-04T02:05:46.816Z,38.98
2019-02-04T02:11:43.172Z,33.40
2019-02-04T02:18:04.153Z,31.52
2019-02-04T02:24:04.477Z,31.20
2019-02-04T02:30:04.074Z,29.63
2019-02-04T02:36:14.703Z,29.95
2019-02-04T02:41:59.117Z,31.90
2019-02-04T02:48:06.788Z,36.23
2019-02-04T02:54:03.716Z,37.53
2019-02-04T03:00:28.095Z,39.20
2019-02-04T03:09:03.442Z,36.70
2019-02-04T03:15:01.793Z,36.93
2019-02-04T03:20:47.266Z,35.73
2019-02-04T03:26:45.627Z,35.95
2019-02-04T03:32:46.301Z,37.80
2019-02-04T03:38:47.424Z,49.70
2019-02-04T03:44:56.865Z,42.80
2019-02-04T03:50:42.953Z,33.25
2019-02-04T03:56:40.497Z,37.20
2019-02-04T04:02:26.166Z,37.40
2019-02-04T04:05:01.495Z,41.48
2019-02-04T04:10:59.010Z,46.53
2019-02-04T04:20:41.800Z,36.40
2019-02-04T04:26:39.338Z,43.70
2019-02-04T04:33:00.109Z,33.02
2019-02-04T04:38:57.650Z,47.05
2019-02-04T04:45:08.283Z,38.80
2019-02-04T04:51:05.870Z,38.85
2019-02-04T04:57:03.450Z,39.25
2019-02-04T05:02:59.879Z,32.03
2019-02-04T05:08:55.411Z,37.65
2019-02-04T05:14:53.962Z,38.05
2019-02-04T05:20:51.543Z,38.83
2019-02-04T05:27:00.402Z,51.63
2019-02-04T05:32:57.527Z,36.80
2019-02-04T05:38:55.454Z,39.85
2019-02-04T05:44:52.777Z,53.80
2019-02-04T05:50:51.324Z,53.63
2019-02-04T05:56:37.711Z,59.30
2019-02-04T06:02:53.326Z,59.58
2019-02-04T06:08:49.674Z,67.22
2019-02-04T06:15:12.234Z,60.20
2019-02-04T06:20:58.234Z,63.17
2019-02-04T06:26:43.934Z,56.75
2019-02-04T06:32:39.485Z,73.00
2019-02-04T06:38:47.821Z,69.72
2019-02-04T06:44:42.371Z,58.10
2019-02-04T06:50:41.893Z,51.60
2019-02-04T06:56:40.508Z,54.83
2019-02-04T07:02:24.883Z,49.38
2019-02-04T07:08:19.634Z,49.50
2019-02-04T07:14:31.190Z,53.95
2019-02-04T07:20:28.858Z,68.05
2019-02-04T07:26:26.843Z,91.87
2019-02-04T07:32:25.650Z,102.55
2019-02-04T07:38:21.431Z,101.25
2019-02-04T07:44:30.869Z,87.53
2019-02-04T07:50:15.664Z,65.62
2019-02-04T07:56:23.973Z,64.92
2019-02-04T08:02:23.499Z,65.22
2019-02-04T08:08:43.918Z,64.58
2019-02-04T08:14:45.275Z,61.85
2019-02-04T08:26:58.346Z,51.63
2019-02-04T08:32:59.997Z,54.48
2019-02-04T08:39:11.400Z,48.68
2019-02-04T08:45:15.230Z,51.63
2019-02-04T08:51:10.697Z,51.65
2019-02-04T08:57:09.065Z,44.23
2019-02-04T09:03:05.394Z,47.17
2019-02-04T09:09:02.122Z,55.03
2019-02-04T09:14:59.881Z,52.38
2019-02-04T09:20:46.268Z,43.73
2019-02-04T09:26:33.421Z,42.45
2019-02-04T09:32:32.134Z,41.20
2019-02-04T09:38:41.654Z,40.65
2019-02-04T09:44:37.599Z,32.95
2019-02-04T09:50:46.130Z,40.80
2019-02-04T09:56:42.189Z,44.15
2019-02-04T10:02:38.545Z,34.27
2019-02-04T10:08:35.498Z,40.67
2019-02-04T10:14:32.123Z,36.93
2019-02-04T10:20:34.258Z,40.90
2019-02-04T10:26:27.149Z,40.17
2019-02-04T10:32:12.936Z,39.27
2019-02-04T10:38:32.534Z,40.15
2019-02-04T10:44:33.538Z,34.73
2019-02-04T10:50:46.226Z,35.83
2019-02-04T10:56:52.024Z,39.23
2019-02-04T11:03:07.906Z,40.67
2019-02-04T11:09:06.416Z,40.05
2019-02-04T11:15:04.997Z,42.58
2019-02-04T11:21:03.268Z,43.20
2019-02-04T11:31:11.508Z,43.78
2019-02-04T11:36:55.949Z,46.50
2019-02-04T11:43:02.481Z,57.03
2019-02-04T11:48:58.340Z,50.43
2019-02-04T11:54:55.683Z,51.13
2019-02-04T12:00:52.163Z,47.08
2019-02-04T12:06:59.809Z,42.23
2019-02-04T12:12:57.352Z,39.18
2019-02-04T12:18:54.885Z,42.30
2019-02-04T12:24:51.669Z,43.28
2019-02-04T12:31:01.108Z,48.02
2019-02-04T12:36:45.534Z,45.43
2019-02-04T12:42:45.303Z,39.42
2019-02-04T12:48:43.632Z,42.38
2019-02-04T12:54:30.065Z,38.77
2019-02-04T13:00:30.593Z,44.50
2019-02-04T13:06:47.367Z,38.97
2019-02-04T13:12:32.752Z,26.87
2019-02-04T13:18:42.681Z,22.20
2019-02-04T13:24:41.947Z,26.53
2019-02-04T13:30:30.412Z,23.57
2019-02-04T13:36:30.011Z,29.33
2019-02-04T13:42:26.731Z,21.33
2019-02-04T13:48:25.282Z,19.37
2019-02-04T13:54:36.735Z,17.70
2019-02-04T14:00:34.343Z,17.23
2019-02-04T14:06:47.556Z,25.53
2019-02-04T14:12:32.393Z,23.67
2019-02-04T14:18:44.068Z,17.53
2019-02-04T14:24:39.830Z,18.37
2019-02-04T14:30:51.269Z,19.77
2019-02-04T14:36:47.758Z,19.85
2019-02-04T14:42:45.377Z,20.57
2019-02-04T14:48:54.351Z,35.70
2019-02-04T14:55:55.407Z,29.77
2019-02-04T15:02:25.052Z,33.95
2019-02-04T15:08:43.468Z,37.50
2019-02-04T15:15:08.924Z,25.15
2019-02-04T15:21:37.432Z,34.75
2019-02-04T15:27:59.293Z,29.18
2019-02-04T15:34:03.499Z,26.75
2019-02-04T15:40:19.042Z,23.40
2019-02-04T15:46:40.311Z,23.80
2019-02-04T15:52:52.210Z,23.42
2019-02-04T15:58:50.537Z,22.02
2019-02-04T16:05:11.299Z,23.22
2019-02-04T16:11:09.857Z,22.37
2019-02-04T16:17:09.290Z,33.65
2019-02-04T16:23:06.989Z,33.65
2019-02-04T16:29:03.257Z,31.30
2019-02-04T16:34:49.949Z,32.25
2019-02-04T16:37:50.769Z,27.35
2019-02-04T16:43:49.544Z,34.08
2019-02-04T16:49:33.703Z,31.75
2019-02-04T16:55:33.236Z,35.90
2019-02-04T17:01:32.785Z,26.40
2019-02-04T17:07:17.407Z,31.45
2019-02-04T17:13:16.761Z,33.53
2019-02-04T17:19:15.343Z,32.60
2019-02-04T17:25:25.218Z,29.80
2019-02-04T17:31:27.798Z,34.15
2019-02-04T17:37:39.244Z,40.28
2019-02-04T17:43:23.644Z,35.83
2019-02-04T17:49:33.559Z,30.55
2019-02-04T17:55:32.511Z,29.70
2019-02-04T18:01:32.811Z,33.65
2019-02-04T18:07:29.976Z,30.95
2019-02-04T18:13:19.345Z,27.48
2019-02-04T18:19:40.403Z,22.27
2019-02-04T18:26:02.017Z,24.87
2019-02-04T18:32:00.531Z,27.98
2019-02-04T18:37:59.322Z,28.42
2019-02-04T18:43:43.772Z,27.37
2019-02-04T18:49:39.730Z,31.10
2019-02-04T18:55:47.811Z,29.48
2019-02-04T19:01:46.432Z,35.28
2019-02-04T19:07:57.293Z,38.67
2019-02-04T19:13:55.426Z,32.38
2019-02-04T19:20:07.323Z,31.75
2019-02-04T19:26:03.639Z,31.73
2019-02-04T19:32:02.942Z,31.55
2019-02-04T19:38:03.088Z,30.77
2019-02-04T19:44:14.437Z,30.35
2019-02-04T20:00:59.659Z,29.63
2019-02-04T20:06:55.185Z,27.85
2019-02-04T20:13:16.866Z,29.60
2019-02-04T20:19:14.555Z,23.25
2019-02-04T20:24:59.685Z,25.55
2019-02-04T20:31:09.343Z,25.10
2019-02-04T20:37:06.080Z,21.40
2019-02-04T20:46:53.524Z,22.02
2019-02-04T20:52:54.324Z,21.52
2019-02-04T20:59:06.212Z,20.85
2019-02-04T21:05:00.448Z,24.67
2019-02-04T21:11:09.113Z,22.22
2019-02-04T21:17:06.841Z,19.45
2019-02-04T21:23:05.155Z,23.90
2019-02-04T21:29:03.634Z,20.92
2019-02-04T21:35:01.218Z,22.32
2019-02-04T21:40:57.808Z,24.20
2019-02-04T21:46:44.455Z,21.00
2019-02-04T21:52:44.114Z,27.17
2019-02-04T21:58:28.611Z,27.35
2019-02-04T22:04:26.909Z,23.80
2019-02-04T22:10:37.638Z,27.42
2019-02-04T22:16:35.943Z,25.43
2019-02-04T22:22:32.774Z,23.35
2019-02-04T22:28:31.238Z,22.20
2019-02-04T22:34:30.848Z,22.67
2019-02-04T22:40:30.105Z,28.02
2019-02-04T22:46:17.637Z,28.10
2019-02-04T22:52:03.011Z,27.95
2019-02-04T22:57:58.533Z,28.12
2019-02-04T23:04:19.244Z,20.68
2019-02-04T23:10:20.511Z,23.90
2019-02-04T23:16:08.263Z,23.35
2019-02-04T23:22:05.862Z,29.25
2019-02-04T23:28:14.407Z,23.65
2019-02-04T23:34:10.116Z,24.77
2019-02-04T23:40:34.050Z,24.20
2019-02-04T23:46:19.491Z,24.55
2019-02-04T23:52:18.839Z,21.15
2019-02-04T23:58:16.317Z,23.15
